createdAt,value
2022-07-27T00:01:21.484Z,99.90
2022-07-27T00:03:50.083Z,99.90
2022-07-27T00:06:18.669Z,99.90
2022-07-27T00:08:47.011Z,99.90
2022-07-27T00:11:16.882Z,99.90
2022-07-27T00:13:46.204Z,99.90
2022-07-27T00:16:14.794Z,99.90
2022-07-27T00:18:43.152Z,99.90
2022-07-27T00:21:11.809Z,99.90
2022-07-27T00:23:40.823Z,99.90
2022-07-27T00:26:09.183Z,99.90
2022-07-27T00:28:39.004Z,99.90
2022-07-27T00:31:07.733Z,99.90
2022-07-27T00:33:36.093Z,99.90
2022-07-27T00:36:05.157Z,99.90
2022-07-27T00:38:33.571Z,99.90
2022-07-27T00:41:01.972Z,99.90
2022-07-27T00:43:30.514Z,99.90
2022-07-27T00:46:00.315Z,99.90
2022-07-27T00:48:33.062Z,99.90
2022-07-27T00:51:01.361Z,99.90
2022-07-27T00:53:29.753Z,99.90
2022-07-27T00:55:58.049Z,99.90
2022-07-27T00:58:26.988Z,99.90
2022-07-27T01:00:55.413Z,99.90
2022-07-27T01:03:29.864Z,99.90
2022-07-27T01:05:59.183Z,99.90
2022-07-27T01:08:29.512Z,99.90
2022-07-27T01:10:58.678Z,99.90
2022-07-27T01:13:27.547Z,99.90
2022-07-27T01:15:56.810Z,99.90
2022-07-27T01:18:32.087Z,99.90
2022-07-27T01:21:02.516Z,99.90
2022-07-27T01:23:33.720Z,99.90
2022-07-27T01:26:02.727Z,99.90
2022-07-27T01:28:31.116Z,99.90
2022-07-27T01:30:59.585Z,99.90
2022-07-27T01:33:27.933Z,99.90
2022-07-27T01:35:57.778Z,99.90
2022-07-27T01:41:02.932Z,99.90
2022-07-27T01:43:31.632Z,99.90
2022-07-27T01:46:00.124Z,99.90
2022-07-27T01:48:28.580Z,99.90
2022-07-27T01:50:57.109Z,99.90
2022-07-27T01:53:25.852Z,99.90
2022-07-27T01:55:54.237Z,99.90
2022-07-27T01:58:23.852Z,99.90
2022-07-27T02:00:52.352Z,99.90
2022-07-27T02:03:20.688Z,99.90
2022-07-27T02:05:49.067Z,99.90
2022-07-27T02:08:17.457Z,99.90
2022-07-27T02:11:03.410Z,99.90
2022-07-27T02:13:34.441Z,99.90
2022-07-27T02:16:03.133Z,99.90
2022-07-27T02:18:35.922Z,99.90
2022-07-27T02:21:06.525Z,99.90
2022-07-27T02:23:35.277Z,99.90
2022-07-27T02:26:03.853Z,99.90
2022-07-27T02:28:33.643Z,99.90
2022-07-27T02:31:02.663Z,99.90
2022-07-27T02:33:31.090Z,99.90
2022-07-27T02:39:40.416Z,99.90
2022-07-27T02:42:09.042Z,99.90
2022-07-27T02:44:38.911Z,99.90
2022-07-27T02:47:07.393Z,99.90
2022-07-27T02:49:35.817Z,99.90
2022-07-27T02:52:04.486Z,99.90
2022-07-27T02:54:33.157Z,99.90
2022-07-27T02:57:02.956Z,99.90
2022-07-27T02:59:31.584Z,99.90
2022-07-27T03:02:01.375Z,99.90
2022-07-27T03:04:29.855Z,99.90
2022-07-27T03:06:58.301Z,99.90
2022-07-27T03:09:33.326Z,99.90
2022-07-27T03:12:02.154Z,99.90
2022-07-27T03:14:30.505Z,99.90
2022-07-27T03:17:00.372Z,99.90
2022-07-27T03:19:30.427Z,99.90
2022-07-27T03:21:58.977Z,99.90
2022-07-27T03:24:27.419Z,99.90
2022-07-27T03:26:55.788Z,99.90
2022-07-27T03:29:24.176Z,99.90
2022-07-27T03:31:57.884Z,99.90
2022-07-27T03:34:27.823Z,99.90
2022-07-27T03:36:56.221Z,99.90
2022-07-27T03:39:24.616Z,99.90
2022-07-27T03:41:52.932Z,99.90
2022-07-27T03:44:21.332Z,99.90
2022-07-27T03:46:49.953Z,99.90
2022-07-27T03:49:18.812Z,99.90
2022-07-27T03:51:48.818Z,99.90
2022-07-27T03:54:17.942Z,99.90
2022-07-27T03:56:46.492Z,99.90
2022-07-27T03:59:15.291Z,99.90
2022-07-27T04:01:43.925Z,99.90
2022-07-27T04:04:12.298Z,99.90
2022-07-27T04:06:40.656Z,99.90
2022-07-27T04:09:10.444Z,99.90
2022-07-27T04:11:43.391Z,99.90
2022-07-27T04:14:19.252Z,99.90
2022-07-27T04:16:48.044Z,99.90
2022-07-27T04:19:16.609Z,99.90
2022-07-27T04:21:45.116Z,99.90
2022-07-27T04:24:14.855Z,99.90
2022-07-27T04:30:34.443Z,99.90
2022-07-27T04:33:02.813Z,99.90
2022-07-27T04:35:32.711Z,99.90
2022-07-27T04:38:01.066Z,99.90
2022-07-27T04:40:35.329Z,99.90
2022-07-27T04:43:06.135Z,99.90
2022-07-27T04:45:35.939Z,99.90
2022-07-27T04:48:07.038Z,99.90
2022-07-27T04:50:41.001Z,99.90
2022-07-27T04:53:10.502Z,99.90
2022-07-27T04:55:43.446Z,99.90
2022-07-27T04:58:11.871Z,99.90
2022-07-27T05:00:40.502Z,99.90
2022-07-27T05:03:09.862Z,99.90
2022-07-27T05:05:38.385Z,99.90
2022-07-27T05:08:07.162Z,99.90
2022-07-27T05:10:35.568Z,99.90
2022-07-27T05:13:07.359Z,99.90
2022-07-27T05:15:53.954Z,99.90
2022-07-27T05:18:24.250Z,99.90
2022-07-27T05:20:52.564Z,99.90
2022-07-27T05:23:20.918Z,99.90
2022-07-27T05:25:49.254Z,99.90
2022-07-27T05:28:18.976Z,99.90
2022-07-27T05:30:47.308Z,99.90
2022-07-27T05:33:15.640Z,99.90
2022-07-27T05:35:44.060Z,99.90
2022-07-27T05:38:12.394Z,99.90
2022-07-27T05:40:41.327Z,99.90
2022-07-27T05:43:09.637Z,99.90
2022-07-27T05:45:39.540Z,99.90
2022-07-27T05:48:08.316Z,99.90
2022-07-27T05:50:36.735Z,99.90
2022-07-27T05:53:06.255Z,99.90
2022-07-27T05:55:34.731Z,99.90
2022-07-27T05:58:03.098Z,99.90
2022-07-27T06:00:31.504Z,99.90
2022-07-27T06:03:01.302Z,99.90
2022-07-27T06:05:30.753Z,99.90
2022-07-27T06:08:03.516Z,99.90
2022-07-27T06:10:33.551Z,99.90
2022-07-27T06:13:03.269Z,99.90
2022-07-27T06:15:31.685Z,99.90
2022-07-27T06:18:01.418Z,99.90
2022-07-27T06:20:29.901Z,99.90
2022-07-27T06:23:03.308Z,99.90
2022-07-27T06:25:36.833Z,99.90
2022-07-27T06:28:05.936Z,99.90
2022-07-27T06:30:34.636Z,99.90
2022-07-27T06:33:06.079Z,99.90
2022-07-27T06:35:39.092Z,99.90
2022-07-27T06:38:07.819Z,99.90
2022-07-27T06:40:36.790Z,99.90
2022-07-27T06:43:05.293Z,99.90
2022-07-27T06:45:36.418Z,99.90
2022-07-27T06:48:09.896Z,99.90
2022-07-27T06:50:38.481Z,99.90
2022-07-27T06:53:06.873Z,99.90
2022-07-27T06:55:35.301Z,99.90
2022-07-27T06:58:04.176Z,99.90
2022-07-27T07:00:32.758Z,99.90
2022-07-27T07:03:02.904Z,99.90
2022-07-27T07:05:34.377Z,99.90
2022-07-27T07:08:11.521Z,99.90
2022-07-27T07:10:40.349Z,99.90
2022-07-27T07:13:10.554Z,99.90
2022-07-27T07:15:40.915Z,99.90
2022-07-27T07:18:10.160Z,99.90
2022-07-27T07:20:40.556Z,99.90
2022-07-27T07:23:09.718Z,99.90
2022-07-27T07:25:38.946Z,99.90
2022-07-27T07:28:08.366Z,99.90
2022-07-27T07:30:37.438Z,99.90
2022-07-27T07:33:05.893Z,99.90
2022-07-27T07:35:34.512Z,99.90
2022-07-27T07:38:04.319Z,99.90
2022-07-27T07:40:43.249Z,99.90
2022-07-27T07:43:14.449Z,99.90
2022-07-27T07:45:50.055Z,99.90
2022-07-27T07:48:21.352Z,99.90
2022-07-27T07:50:52.260Z,99.90
2022-07-27T07:53:23.884Z,99.90
2022-07-27T07:55:53.072Z,99.90
2022-07-27T07:58:22.876Z,99.90
2022-07-27T08:00:51.581Z,99.90
2022-07-27T08:03:20.552Z,99.90
2022-07-27T08:05:48.987Z,99.90
2022-07-27T08:08:18.111Z,99.90
2022-07-27T08:10:48.080Z,99.90
2022-07-27T08:13:21.673Z,99.90
2022-07-27T08:15:50.570Z,99.90
2022-07-27T08:18:19.059Z,99.90
2022-07-27T08:20:47.444Z,99.90
2022-07-27T08:23:15.790Z,99.90
2022-07-27T08:25:44.355Z,99.90
2022-07-27T08:28:14.106Z,99.90
2022-07-27T08:30:42.462Z,99.90
2022-07-27T08:33:11.850Z,99.90
2022-07-27T08:35:40.562Z,99.90
2022-07-27T08:38:10.222Z,99.90
2022-07-27T08:40:42.876Z,99.90
2022-07-27T08:43:23.674Z,99.90
2022-07-27T08:45:58.640Z,99.90
2022-07-27T08:48:28.568Z,99.90
2022-07-27T08:50:57.444Z,99.90
2022-07-27T08:53:26.308Z,99.90
2022-07-27T08:56:14.683Z,99.90
2022-07-27T08:58:45.757Z,99.90
2022-07-27T09:01:14.099Z,99.90
2022-07-27T09:03:42.523Z,99.90
2022-07-27T09:06:10.912Z,99.90
2022-07-27T09:08:41.893Z,99.90
2022-07-27T09:11:16.587Z,99.90
2022-07-27T09:13:46.441Z,99.90
2022-07-27T09:16:19.594Z,99.90
2022-07-27T09:18:49.519Z,99.90
2022-07-27T09:21:20.246Z,99.90
2022-07-27T09:23:50.634Z,99.90
2022-07-27T09:26:32.048Z,99.90
2022-07-27T09:29:04.060Z,99.90
2022-07-27T09:31:32.869Z,99.90
2022-07-27T09:34:04.173Z,99.90
2022-07-27T09:36:32.989Z,99.90
2022-07-27T09:39:04.105Z,99.90
2022-07-27T09:41:44.152Z,99.90
2022-07-27T09:44:34.512Z,99.90
2022-07-27T09:47:22.740Z,99.90
2022-07-27T09:49:51.300Z,99.90
2022-07-27T09:52:24.788Z,99.90
2022-07-27T09:54:53.195Z,99.90
2022-07-27T09:57:21.766Z,99.90
2022-07-27T10:00:10.712Z,99.90
2022-07-27T10:02:40.101Z,99.90
2022-07-27T10:05:09.119Z,99.90
2022-07-27T10:07:37.675Z,99.90
2022-07-27T10:10:06.958Z,99.90
2022-07-27T10:12:35.291Z,99.90
2022-07-27T10:15:05.550Z,99.90
2022-07-27T10:17:34.097Z,99.90
2022-07-27T10:20:05.820Z,99.90
2022-07-27T10:22:53.780Z,99.90
2022-07-27T10:25:22.531Z,99.90
2022-07-27T10:28:12.970Z,99.90
2022-07-27T10:30:42.806Z,99.90
2022-07-27T10:33:15.785Z,99.90
2022-07-27T10:35:44.538Z,99.90
2022-07-27T10:38:16.797Z,99.90
2022-07-27T10:40:45.680Z,99.90
2022-07-27T10:43:22.805Z,99.90
2022-07-27T10:46:02.732Z,99.90
2022-07-27T10:48:42.718Z,99.90
2022-07-27T10:51:13.865Z,99.90
2022-07-27T10:54:11.018Z,99.90
2022-07-27T10:56:47.064Z,99.90
2022-07-27T10:59:15.922Z,99.90
2022-07-27T11:01:58.950Z,99.90
2022-07-27T11:04:27.522Z,99.90
2022-07-27T11:07:24.125Z,99.90
2022-07-27T11:10:04.359Z,99.90
2022-07-27T11:12:33.432Z,99.90
2022-07-27T11:15:02.682Z,99.40
2022-07-27T11:17:54.186Z,99.60
2022-07-27T11:20:24.816Z,99.20
2022-07-27T11:25:57.454Z,98.60
2022-07-27T11:28:30.459Z,98.40
2022-07-27T11:30:59.309Z,97.70
2022-07-27T11:33:29.523Z,97.10
2022-07-27T11:35:59.802Z,97.10
2022-07-27T11:38:28.440Z,97.90
2022-07-27T11:41:07.253Z,97.00
2022-07-27T11:43:46.046Z,97.20
2022-07-27T11:46:19.940Z,96.50
2022-07-27T11:49:11.593Z,96.10
2022-07-27T11:51:42.976Z,95.80
2022-07-27T11:54:13.443Z,94.90
2022-07-27T11:56:45.074Z,95.20
2022-07-27T11:59:16.420Z,94.90
2022-07-27T12:01:48.118Z,95.10
2022-07-27T12:04:26.879Z,94.40
2022-07-27T12:07:07.313Z,93.80
2022-07-27T12:09:39.014Z,94.40
2022-07-27T12:12:15.776Z,94.00
2022-07-27T12:14:47.181Z,94.00
2022-07-27T12:17:28.152Z,93.90
2022-07-27T12:20:00.757Z,93.10
2022-07-27T12:22:31.941Z,93.70
2022-07-27T12:25:01.970Z,93.30
2022-07-27T12:27:30.629Z,92.90
2022-07-27T12:30:07.859Z,93.20
2022-07-27T12:32:38.915Z,92.90
2022-07-27T12:35:25.854Z,93.00
2022-07-27T12:38:02.231Z,92.10
2022-07-27T12:40:31.885Z,91.90
2022-07-27T12:43:02.134Z,92.20
2022-07-27T12:45:33.989Z,91.40
2022-07-27T12:48:11.155Z,90.90
2022-07-27T12:50:42.359Z,91.70
2022-07-27T12:53:12.820Z,91.10
2022-07-27T12:55:42.066Z,91.60
2022-07-27T12:58:11.602Z,91.40
2022-07-27T13:00:39.946Z,91.60
2022-07-27T13:03:08.914Z,92.00
2022-07-27T13:05:38.503Z,92.00
2022-07-27T13:08:09.555Z,91.90
2022-07-27T13:10:38.590Z,92.00
2022-07-27T13:13:07.064Z,92.30
2022-07-27T13:15:36.028Z,92.80
2022-07-27T13:18:04.626Z,92.40
2022-07-27T13:20:33.115Z,92.70
2022-07-27T13:23:01.586Z,92.10
2022-07-27T13:25:31.317Z,92.20
2022-07-27T13:27:59.659Z,92.00
2022-07-27T13:30:28.462Z,92.40
2022-07-27T13:32:56.761Z,91.70
2022-07-27T13:35:25.492Z,92.10
2022-07-27T13:37:53.981Z,91.70
2022-07-27T13:40:22.379Z,91.80
2022-07-27T13:42:52.130Z,92.40
2022-07-27T13:45:20.536Z,92.20
2022-07-27T13:47:49.048Z,92.20
2022-07-27T13:50:19.494Z,92.30
2022-07-27T13:52:49.572Z,91.70
2022-07-27T13:55:18.891Z,90.90
2022-07-27T13:57:48.010Z,91.90
2022-07-27T14:00:18.859Z,92.70
2022-07-27T14:02:47.884Z,93.10
2022-07-27T14:05:20.047Z,93.40
2022-07-27T14:07:48.767Z,93.10
2022-07-27T14:10:41.887Z,93.10
2022-07-27T14:13:13.074Z,93.50
2022-07-27T14:15:53.255Z,93.10
2022-07-27T14:18:25.972Z,93.70
2022-07-27T14:20:55.066Z,93.30
2022-07-27T14:23:23.533Z,93.00
2022-07-27T14:25:52.241Z,92.90
2022-07-27T14:28:21.449Z,93.40
2022-07-27T14:30:51.894Z,93.40
2022-07-27T14:33:20.402Z,92.90
2022-07-27T14:35:49.461Z,92.30
2022-07-27T14:38:27.799Z,92.60
2022-07-27T14:41:01.033Z,92.40
2022-07-27T14:43:29.826Z,92.10
2022-07-27T14:46:00.098Z,92.20
2022-07-27T14:48:48.826Z,92.00
2022-07-27T14:51:17.551Z,92.40
2022-07-27T14:53:46.219Z,92.50
2022-07-27T14:56:14.762Z,92.70
2022-07-27T14:58:43.531Z,92.30
2022-07-27T15:01:16.583Z,92.20
2022-07-27T15:03:45.806Z,92.60
2022-07-27T15:06:14.181Z,92.40
2022-07-27T15:08:42.631Z,92.10
2022-07-27T15:11:11.121Z,92.60
2022-07-27T15:13:39.493Z,92.30
2022-07-27T15:16:08.072Z,92.30
2022-07-27T15:18:39.189Z,92.70
2022-07-27T15:21:13.547Z,92.80
2022-07-27T15:23:43.139Z,92.90
2022-07-27T15:26:12.591Z,93.20
2022-07-27T15:28:41.292Z,92.80
2022-07-27T15:31:09.841Z,92.90
2022-07-27T15:33:39.724Z,93.40
2022-07-27T15:36:08.128Z,93.00
2022-07-27T15:38:37.742Z,93.70
2022-07-27T15:41:06.271Z,94.10
2022-07-27T15:43:35.354Z,94.40
2022-07-27T15:46:03.775Z,94.50
2022-07-27T15:48:32.295Z,94.20
2022-07-27T15:51:02.462Z,94.90
2022-07-27T15:53:32.026Z,94.50
2022-07-27T15:56:00.468Z,94.60
2022-07-27T15:58:28.781Z,94.60
2022-07-27T16:00:58.313Z,94.00
2022-07-27T16:06:13.521Z,94.00
2022-07-27T16:08:43.820Z,92.90
2022-07-27T16:11:12.242Z,93.20
2022-07-27T16:13:40.614Z,93.10
2022-07-27T16:16:26.076Z,93.50
2022-07-27T16:18:55.545Z,93.80
2022-07-27T16:21:26.626Z,93.80
2022-07-27T16:23:56.715Z,93.90
2022-07-27T16:26:25.389Z,94.00
2022-07-27T16:28:55.201Z,94.30
2022-07-27T16:31:23.980Z,94.20
2022-07-27T16:33:54.982Z,93.80
2022-07-27T16:36:25.398Z,93.80
2022-07-27T16:38:54.094Z,94.00
2022-07-27T16:41:23.704Z,92.40
2022-07-27T16:43:52.022Z,93.10
2022-07-27T16:46:20.428Z,93.50
2022-07-27T16:48:49.088Z,93.80
2022-07-27T16:51:17.545Z,93.30
2022-07-27T16:53:49.155Z,93.10
2022-07-27T16:56:18.112Z,93.10
2022-07-27T16:58:46.493Z,92.00
2022-07-27T17:01:26.028Z,92.20
2022-07-27T17:04:00.455Z,92.70
2022-07-27T17:06:29.448Z,91.80
2022-07-27T17:08:59.227Z,92.30
2022-07-27T17:11:27.595Z,92.30
2022-07-27T17:13:59.147Z,92.50
2022-07-27T17:16:28.390Z,93.00
2022-07-27T17:18:57.158Z,93.70
2022-07-27T17:21:25.485Z,94.10
2022-07-27T17:23:53.902Z,93.90
2022-07-27T17:26:24.942Z,95.00
2022-07-27T17:28:53.988Z,95.20
2022-07-27T17:31:23.116Z,95.20
2022-07-27T17:33:52.542Z,95.30
2022-07-27T17:36:20.959Z,95.30
2022-07-27T17:38:50.872Z,95.40
2022-07-27T17:41:24.576Z,95.60
2022-07-27T17:43:55.703Z,96.10
2022-07-27T17:46:25.255Z,95.40
2022-07-27T17:48:54.572Z,95.20
2022-07-27T17:51:25.449Z,95.00
2022-07-27T17:53:53.903Z,94.60
2022-07-27T17:56:22.304Z,94.80
2022-07-27T17:58:51.274Z,94.80
2022-07-27T18:01:47.208Z,95.00
2022-07-27T18:04:09.387Z,95.20
2022-07-27T18:06:37.785Z,95.40
2022-07-27T18:09:07.296Z,95.30
2022-07-27T18:11:35.714Z,95.20
2022-07-27T18:14:04.056Z,95.20
2022-07-27T18:16:38.153Z,95.20
2022-07-27T18:19:08.731Z,95.10
2022-07-27T18:21:37.630Z,95.40
2022-07-27T18:24:06.305Z,95.10
2022-07-27T18:26:34.656Z,95.20
2022-07-27T18:29:02.979Z,95.20
2022-07-27T18:31:31.403Z,94.90
2022-07-27T18:37:03.506Z,95.40
2022-07-27T18:39:33.702Z,96.00
2022-07-27T18:42:04.126Z,96.40
2022-07-27T18:44:38.564Z,96.70
2022-07-27T18:47:09.544Z,96.60
2022-07-27T18:49:40.783Z,96.50
2022-07-27T18:52:09.126Z,97.00
2022-07-27T18:54:37.851Z,97.10
2022-07-27T18:57:07.126Z,97.10
2022-07-27T18:59:40.898Z,97.50
2022-07-27T19:02:09.777Z,97.30
2022-07-27T19:04:39.491Z,97.40
2022-07-27T19:07:10.226Z,97.80
2022-07-27T19:09:38.740Z,98.20
2022-07-27T19:12:09.819Z,98.40
2022-07-27T19:14:39.040Z,98.10
2022-07-27T19:17:08.081Z,98.00
2022-07-27T19:19:44.451Z,98.00
2022-07-27T19:22:13.305Z,98.30
2022-07-27T19:24:41.748Z,98.30
2022-07-27T19:27:11.138Z,98.40
2022-07-27T19:29:39.608Z,98.60
2022-07-27T19:32:09.787Z,99.50
2022-07-27T19:34:44.510Z,99.90
2022-07-27T19:37:14.231Z,99.90
2022-07-27T19:40:02.401Z,99.90
2022-07-27T19:42:30.898Z,99.90
2022-07-27T19:44:59.239Z,99.90
2022-07-27T19:47:27.617Z,99.90
2022-07-27T19:49:56.486Z,99.90
2022-07-27T19:52:26.242Z,99.90
2022-07-27T19:54:54.578Z,99.90
2022-07-27T19:57:22.973Z,99.90
2022-07-27T19:59:55.828Z,99.90
2022-07-27T20:02:25.305Z,99.90
2022-07-27T20:04:53.815Z,99.90
2022-07-27T20:07:23.509Z,99.90
2022-07-27T20:09:53.471Z,99.90
2022-07-27T20:12:21.806Z,99.90
2022-07-27T20:14:50.139Z,99.90
2022-07-27T20:17:18.478Z,99.90
2022-07-27T20:19:46.903Z,99.90
2022-07-27T20:22:15.218Z,99.90
2022-07-27T20:24:43.585Z,99.90
2022-07-27T20:27:13.464Z,99.90
2022-07-27T20:29:41.939Z,99.90
2022-07-27T20:32:10.353Z,99.90
2022-07-27T20:37:14.149Z,99.90
2022-07-27T20:39:42.525Z,99.90
2022-07-27T20:42:12.273Z,99.90
2022-07-27T20:44:40.711Z,99.90
2022-07-27T20:47:09.631Z,99.90
2022-07-27T20:49:37.998Z,99.90
2022-07-27T20:52:07.696Z,99.90
2022-07-27T20:54:36.677Z,99.90
2022-07-27T20:57:05.398Z,99.90
2022-07-27T20:59:35.268Z,99.90
2022-07-27T21:02:03.731Z,99.90
2022-07-27T21:04:32.158Z,99.90
2022-07-27T21:07:00.600Z,99.90
2022-07-27T21:09:28.979Z,99.90
2022-07-27T21:12:01.428Z,99.90
2022-07-27T21:14:29.749Z,99.90
2022-07-27T21:16:59.629Z,99.90
2022-07-27T21:19:28.043Z,99.90
2022-07-27T21:21:56.402Z,99.90
2022-07-27T21:24:26.190Z,99.90
2022-07-27T21:26:54.794Z,99.90
2022-07-27T21:29:27.810Z,99.90
2022-07-27T21:32:01.853Z,99.90
2022-07-27T21:37:16.657Z,99.90
2022-07-27T21:39:46.331Z,99.90
2022-07-27T21:42:14.691Z,99.90
2022-07-27T21:44:43.026Z,99.90
2022-07-27T21:47:14.400Z,99.90
2022-07-27T21:49:44.443Z,99.90
2022-07-27T21:52:12.779Z,99.90
2022-07-27T21:54:41.332Z,99.90
2022-07-27T21:57:09.646Z,99.90
2022-07-27T21:59:37.985Z,99.90
2022-07-27T22:02:06.334Z,99.90
2022-07-27T22:04:36.219Z,99.90
2022-07-27T22:07:04.990Z,99.90
2022-07-27T22:09:33.382Z,99.90
2022-07-27T22:12:01.741Z,99.90
2022-07-27T22:14:30.111Z,99.90
2022-07-27T22:17:00.064Z,99.90
2022-07-27T22:19:28.480Z,99.90
2022-07-27T22:21:58.321Z,99.90
2022-07-27T22:24:26.680Z,99.90
2022-07-27T22:26:55.004Z,99.90
2022-07-27T22:29:23.755Z,99.90
2022-07-27T22:31:52.126Z,99.90
2022-07-27T22:34:20.540Z,99.90
2022-07-27T22:36:49.250Z,99.90
2022-07-27T22:39:19.925Z,99.90
2022-07-27T22:41:48.404Z,99.90
2022-07-27T22:44:19.124Z,99.90
2022-07-27T22:46:49.042Z,99.90
2022-07-27T22:49:17.719Z,99.90
2022-07-27T22:51:49.574Z,99.90
2022-07-27T22:54:22.869Z,99.90
2022-07-27T22:56:51.317Z,99.90
2022-07-27T22:59:19.741Z,99.90
2022-07-27T23:01:48.571Z,99.90
2022-07-27T23:04:18.303Z,99.90
2022-07-27T23:06:47.787Z,99.90
2022-07-27T23:09:16.641Z,99.90
2022-07-27T23:11:46.687Z,99.90
2022-07-27T23:14:15.786Z,99.90
2022-07-27T23:16:45.318Z,99.90
2022-07-27T23:19:13.784Z,99.90
2022-07-27T23:21:42.396Z,99.90
2022-07-27T23:24:11.710Z,99.90
2022-07-27T23:26:42.893Z,99.90
2022-07-27T23:29:12.907Z,99.90
2022-07-27T23:31:41.394Z,99.90
2022-07-27T23:34:10.076Z,99.90
2022-07-27T23:36:38.657Z,99.90
2022-07-27T23:39:07.033Z,99.90
2022-07-27T23:41:35.363Z,99.90
2022-07-27T23:44:03.776Z,99.90
2022-07-27T23:46:33.693Z,99.90
2022-07-27T23:49:02.163Z,99.90
2022-07-27T23:51:30.525Z,99.90
2022-07-27T23:53:58.837Z,99.90
2022-07-27T23:56:27.169Z,99.90
2022-07-27T23:58:55.503Z,99.90
